Time;durP1;ratioP1;P1;durP2;ratioP2;P2;SDS_P1;SDS_P2;PMS_P1;PMS_P2;Temp;Humidity;BMP_temperature;BMP_pressure;BME280_temperature;BME280_humidity;BME280_pressure;Samples;Min_cycle;Max_cycle;Signal;HPM_P1;HPM_P2
2023/05/10 00:00:32;;;;;;;0.50;0.38;;;15.00;99.90;;;;;;5096613;28;20115;-78
2023/05/10 00:02:58;;;;;;;0.68;0.40;;;15.00;99.90;;;;;;5094912;28;20039;-78
2023/05/10 00:05:24;;;;;;;1.70;0.38;;;15.00;99.90;;;;;;5096502;28;20485;-78
2023/05/10 00:07:50;;;;;;;0.47;0.38;;;15.00;99.90;;;;;;5096154;28;20024;-78
2023/05/10 00:10:15;;;;;;;0.95;0.40;;;15.10;99.90;;;;;;5096659;28;20024;-78
2023/05/10 00:12:41;;;;;;;1.60;0.38;;;15.00;99.90;;;;;;5094825;28;20400;-79
2023/05/10 00:15:08;;;;;;;0.60;0.40;;;15.00;99.90;;;;;;5094856;28;20024;-78
2023/05/10 00:17:33;;;;;;;2.70;0.47;;;15.00;99.90;;;;;;5095088;28;20494;-78
2023/05/10 00:19:59;;;;;;;0.80;0.28;;;15.00;99.90;;;;;;5094556;28;20044;-78
2023/05/10 00:22:24;;;;;;;0.60;0.50;;;14.90;99.90;;;;;;5094772;28;20032;-78
2023/05/10 00:24:50;;;;;;;4.22;0.40;;;14.90;99.90;;;;;;5095851;28;20059;-78
2023/05/10 00:27:16;;;;;;;0.40;0.30;;;14.90;99.90;;;;;;5094925;28;20024;-78
2023/05/10 00:29:41;;;;;;;0.77;0.40;;;15.00;99.90;;;;;;5094515;28;20028;-79
2023/05/10 00:32:07;;;;;;;1.60;0.38;;;15.00;99.90;;;;;;5096181;28;20036;-78
2023/05/10 00:34:33;;;;;;;0.63;0.35;;;14.80;99.90;;;;;;5096119;28;20380;-78
2023/05/10 00:36:58;;;;;;;0.80;0.25;;;14.80;99.90;;;;;;5094469;28;20111;-77
2023/05/10 00:39:24;;;;;;;2.10;0.40;;;14.80;99.90;;;;;;5094425;28;20131;-78
2023/05/10 00:41:49;;;;;;;1.15;0.20;;;14.80;99.90;;;;;;5095358;28;20024;-78
2023/05/10 00:44:15;;;;;;;2.38;0.47;;;14.80;99.90;;;;;;5093980;28;20039;-78
2023/05/10 00:46:41;;;;;;;3.75;0.30;;;14.80;99.90;;;;;;5093609;28;20031;-83
2023/05/10 00:49:07;;;;;;;1.45;0.30;;;14.80;99.90;;;;;;5095641;28;20105;-78
2023/05/10 00:51:33;;;;;;;0.40;0.20;;;14.80;99.90;;;;;;5095622;28;20063;-78
2023/05/10 00:53:59;;;;;;;0.20;0.20;;;14.80;99.90;;;;;;5096930;28;20024;-78
2023/05/10 00:56:25;;;;;;;0.50;0.30;;;14.80;99.90;;;;;;5095466;28;20026;-78
2023/05/10 00:58:51;;;;;;;0.20;0.20;;;14.80;99.90;;;;;;5093089;28;20047;-78
2023/05/10 01:01:17;;;;;;;0.60;0.30;;;14.80;99.90;;;;;;5095377;28;20460;-78
2023/05/10 01:03:43;;;;;;;0.73;0.38;;;14.70;99.90;;;;;;5093163;28;20075;-78
2023/05/10 01:06:09;;;;;;;1.27;0.30;;;14.80;99.90;;;;;;5094222;28;20025;-78
2023/05/10 01:12:50;;;;;;;0.35;0.30;;;14.70;99.90;;;;;;5094708;28;20487;-78
2023/05/10 01:15:17;;;;;;;0.73;0.40;;;14.60;99.90;;;;;;5094081;28;20073;-78
2023/05/10 01:17:45;;;;;;;1.48;0.35;;;14.70;99.90;;;;;;5093749;28;20043;-82
2023/05/10 01:20:11;;;;;;;3.40;0.35;;;14.70;99.90;;;;;;5094069;28;20035;-78
2023/05/10 01:22:56;;;;;;;0.30;0.30;;;14.70;99.90;;;;;;5095124;28;20024;-78
2023/05/10 01:25:40;;;;;;;1.58;0.40;;;14.70;99.90;;;;;;5095209;28;20029;-78
2023/05/10 01:28:25;;;;;;;0.22;0.22;;;14.60;99.90;;;;;;5093502;28;20543;-78
2023/05/10 01:31:06;;;;;;;1.63;0.60;;;14.60;99.90;;;;;;5093385;28;20028;-78
2023/05/10 01:33:58;;;;;;;0.70;0.60;;;14.60;99.90;;;;;;5093860;28;20024;-78
2023/05/10 01:36:27;;;;;;;;;;;14.60;99.90;;;;;;5095385;28;20028;-78
2023/05/10 01:39:20;;;;;;;2.30;0.50;;;14.60;99.90;;;;;;5093104;28;19970;-78
2023/05/10 01:42:03;;;;;;;0.50;0.40;;;14.60;99.90;;;;;;5094266;28;20066;-79
2023/05/10 01:44:46;;;;;;;1.35;0.40;;;14.50;99.90;;;;;;5093848;28;20024;-79
2023/05/10 01:47:30;;;;;;;2.50;0.60;;;14.60;99.90;;;;;;5093710;28;20074;-78
2023/05/10 01:49:59;;;;;;;2.55;0.75;;;14.60;99.90;;;;;;5093826;28;20464;-79
2023/05/10 01:52:36;;;;;;;0.65;0.55;;;14.60;99.90;;;;;;5099924;28;20465;-79
2023/05/10 01:55:06;;;;;;;1.38;0.70;;;14.60;99.90;;;;;;5098104;28;20028;-78
2023/05/10 01:57:39;;;;;;;1.48;0.52;;;14.60;99.90;;;;;;5097311;28;20028;-79
2023/05/10 02:00:07;;;;;;;1.48;0.57;;;14.60;99.90;;;;;;5093410;28;20501;-79
2023/05/10 02:02:37;;;;;;;1.92;0.70;;;14.60;99.90;;;;;;5093328;28;20460;-79
2023/05/10 02:05:05;;;;;;;1.75;0.70;;;14.60;99.90;;;;;;5093398;28;20040;-79
2023/05/10 02:07:34;;;;;;;2.67;0.80;;;14.60;99.90;;;;;;5094879;28;20032;-79
2023/05/10 02:10:01;;;;;;;1.25;0.57;;;14.70;99.90;;;;;;5094140;28;20028;-79
2023/05/10 02:12:28;;;;;;;0.60;0.60;;;14.70;99.90;;;;;;5094782;28;20453;-80
2023/05/10 02:14:55;;;;;;;2.25;0.82;;;14.70;99.90;;;;;;5093387;28;20051;-80
2023/05/10 02:17:22;;;;;;;2.25;0.60;;;14.70;99.90;;;;;;5093828;28;20403;-80
2023/05/10 02:19:49;;;;;;;1.45;0.98;;;14.70;99.90;;;;;;5093913;28;20513;-79
2023/05/10 02:22:16;;;;;;;1.13;1.00;;;14.70;99.90;;;;;;5093975;28;20028;-78
2023/05/10 02:24:43;;;;;;;1.42;1.15;;;14.70;99.90;;;;;;5092522;28;20059;-77
2023/05/10 02:27:10;;;;;;;1.55;0.95;;;14.70;99.90;;;;;;5093133;28;20047;-77
2023/05/10 02:29:36;;;;;;;1.70;1.17;;;14.70;99.90;;;;;;5092877;28;20020;-78
2023/05/10 02:32:03;;;;;;;2.85;1.17;;;14.80;99.90;;;;;;5092034;28;20035;-77
2023/05/10 02:34:30;;;;;;;3.13;1.38;;;14.80;99.90;;;;;;5094046;28;20031;-78
2023/05/10 02:36:57;;;;;;;1.88;1.42;;;14.80;99.90;;;;;;5092410;28;20051;-78
2023/05/10 02:39:24;;;;;;;2.13;1.42;;;14.70;99.90;;;;;;5092490;28;20182;-77
2023/05/10 02:41:52;;;;;;;2.67;1.88;;;14.70;99.90;;;;;;5093320;28;20028;-79
2023/05/10 02:44:19;;;;;;;1.63;1.45;;;14.70;99.90;;;;;;5093807;28;20028;-78
2023/05/10 02:46:45;;;;;;;3.85;1.55;;;14.70;99.90;;;;;;5092516;28;20028;-78
2023/05/10 02:49:11;;;;;;;3.05;1.70;;;14.70;99.90;;;;;;5091628;28;20031;-78
2023/05/10 02:51:43;;;;;;;1.80;1.70;;;14.70;99.90;;;;;;5093507;28;20081;-78
2023/05/10 02:54:28;;;;;;;2.88;1.80;;;14.60;99.90;;;;;;5093260;28;20457;-78
2023/05/10 02:56:59;;;;;;;3.30;1.73;;;14.60;99.90;;;;;;5093257;28;20035;-78
2023/05/10 02:59:25;;;;;;;2.95;2.00;;;14.60;99.90;;;;;;5093305;28;20027;-78
2023/05/10 03:01:50;;;;;;;2.90;1.80;;;14.50;99.90;;;;;;5091593;28;20024;-78
2023/05/10 03:04:16;;;;;;;2.75;1.90;;;14.50;99.90;;;;;;5092992;28;20062;-78
2023/05/10 03:06:42;;;;;;;3.13;2.03;;;14.50;99.90;;;;;;5093326;28;20473;-78
2023/05/10 03:09:09;;;;;;;5.07;1.80;;;14.40;99.90;;;;;;5091596;28;20527;-78
2023/05/10 03:11:53;;;;;;;2.15;1.80;;;14.40;99.90;;;;;;5093375;28;20027;-77
2023/05/10 03:14:45;;;;;;;2.42;1.65;;;14.40;99.90;;;;;;5091807;28;20024;-78
2023/05/10 03:17:39;;;;;;;3.75;2.10;;;14.30;99.90;;;;;;5091557;28;20020;-77
2023/05/10 03:20:11;;;;;;;3.53;1.80;;;14.40;99.90;;;;;;5091187;28;20485;-78
2023/05/10 03:22:51;;;;;;;4.05;1.95;;;14.30;99.90;;;;;;5095956;28;20039;-78
2023/05/10 03:25:19;;;;;;;2.75;1.95;;;14.30;99.90;;;;;;5097585;28;20476;-78
2023/05/10 03:27:45;;;;;;;3.17;2.20;;;14.30;99.90;;;;;;5095974;28;20024;-78
2023/05/10 03:30:12;;;;;;;1.92;1.67;;;14.30;99.90;;;;;;5097009;28;20024;-78
2023/05/10 03:32:38;;;;;;;2.03;1.70;;;14.30;99.90;;;;;;5095718;28;20024;-78
2023/05/10 03:35:08;;;;;;;3.25;2.00;;;14.30;99.90;;;;;;5096898;28;20035;-77
2023/05/10 03:37:35;;;;;;;2.40;2.00;;;14.20;99.90;;;;;;5096052;28;20471;-77
2023/05/10 03:40:00;;;;;;;2.17;1.83;;;14.20;99.90;;;;;;5097058;28;20052;-80
2023/05/10 03:42:26;;;;;;;2.78;1.75;;;14.20;99.90;;;;;;5096289;28;20036;-79
2023/05/10 03:44:52;;;;;;;2.20;1.70;;;14.20;99.90;;;;;;5096724;28;20032;-79
2023/05/10 03:47:17;;;;;;;3.42;2.20;;;14.20;99.90;;;;;;5095967;28;20024;-78
2023/05/10 03:49:43;;;;;;;3.85;2.00;;;14.20;99.90;;;;;;5095722;28;20483;-78
2023/05/10 03:52:08;;;;;;;3.42;1.90;;;14.20;99.90;;;;;;5096471;28;20028;-78
2023/05/10 03:54:34;;;;;;;3.45;2.05;;;14.20;99.90;;;;;;5097094;28;20176;-78
2023/05/10 03:57:00;;;;;;;2.58;2.00;;;14.20;99.90;;;;;;5095221;28;20028;-78
2023/05/10 03:59:26;;;;;;;2.75;2.00;;;14.20;99.90;;;;;;5096865;28;20477;-78
2023/05/10 04:01:52;;;;;;;2.97;2.05;;;14.20;99.90;;;;;;5096801;28;20115;-84
2023/05/10 04:04:18;;;;;;;3.17;1.88;;;14.20;99.90;;;;;;5095728;28;20119;-77
2023/05/10 04:06:44;;;;;;;3.78;1.80;;;14.20;99.90;;;;;;5095457;28;20030;-78
2023/05/10 04:09:10;;;;;;;5.82;2.10;;;14.20;99.90;;;;;;5094959;28;20527;-78
2023/05/10 04:11:36;;;;;;;1.80;1.70;;;14.20;99.90;;;;;;5095476;28;20058;-78
2023/05/10 04:14:02;;;;;;;3.17;1.52;;;14.30;99.90;;;;;;5094607;28;20028;-78
2023/05/10 04:16:27;;;;;;;2.72;1.70;;;14.20;99.90;;;;;;5095542;28;20027;-78
2023/05/10 04:18:53;;;;;;;1.98;1.70;;;14.30;99.90;;;;;;5096280;28;20062;-84
2023/05/10 04:21:18;;;;;;;2.47;1.70;;;14.30;99.90;;;;;;5095351;28;20028;-79
2023/05/10 04:23:44;;;;;;;2.88;1.90;;;14.30;99.90;;;;;;5096396;28;20036;-78
2023/05/10 04:26:10;;;;;;;2.97;1.90;;;14.30;99.90;;;;;;5094857;28;20036;-78
2023/05/10 04:28:35;;;;;;;2.13;1.88;;;14.30;99.90;;;;;;5095452;28;20020;-78
2023/05/10 04:31:06;;;;;;;2.83;1.75;;;14.40;99.90;;;;;;5094911;28;20031;-78
2023/05/10 04:33:31;;;;;;;4.22;2.05;;;14.40;99.90;;;;;;5095150;28;20538;-78
2023/05/10 04:35:57;;;;;;;5.45;2.65;;;14.40;99.90;;;;;;5094570;28;20024;-78
2023/05/10 04:38:23;;;;;;;2.17;1.80;;;14.30;99.90;;;;;;5095244;28;20070;-79
2023/05/10 04:40:48;;;;;;;2.67;1.90;;;14.40;99.90;;;;;;5096391;28;20028;-79
2023/05/10 04:43:14;;;;;;;3.05;2.28;;;14.40;99.90;;;;;;5094654;28;20047;-79
2023/05/10 04:45:40;;;;;;;2.65;1.95;;;14.40;99.90;;;;;;5094994;28;20032;-78
2023/05/10 04:48:05;;;;;;;4.00;2.25;;;14.40;99.90;;;;;;5094516;28;20071;-79
2023/05/10 04:50:31;;;;;;;2.67;1.67;;;14.50;99.90;;;;;;5095171;28;20126;-78
2023/05/10 04:52:57;;;;;;;2.33;1.70;;;14.50;99.90;;;;;;5092904;28;20032;-78
2023/05/10 04:55:22;;;;;;;3.40;2.00;;;14.50;99.90;;;;;;5088498;28;20024;-78
2023/05/10 04:57:48;;;;;;;2.58;2.05;;;14.50;99.90;;;;;;5093697;28;20384;-78
2023/05/10 05:00:14;;;;;;;3.03;1.90;;;14.50;99.90;;;;;;5093414;28;20051;-79
2023/05/10 05:02:44;;;;;;;3.30;2.03;;;14.50;99.90;;;;;;5093602;28;20028;-79
2023/05/10 05:05:09;;;;;;;2.42;1.50;;;14.50;99.90;;;;;;5093323;28;20384;-80
2023/05/10 05:07:35;;;;;;;3.35;2.00;;;14.50;99.90;;;;;;5094121;28;20024;-79
2023/05/10 05:10:01;;;;;;;2.15;1.92;;;14.60;99.90;;;;;;5093207;28;20472;-79
2023/05/10 05:12:26;;;;;;;2.55;2.20;;;14.60;99.90;;;;;;5094621;28;20070;-79
2023/05/10 05:14:52;;;;;;;5.28;2.40;;;14.60;99.90;;;;;;5093910;28;20093;-80
2023/05/10 05:17:17;;;;;;;4.90;2.85;;;14.60;99.90;;;;;;5093171;28;20479;-79
2023/05/10 05:19:43;;;;;;;4.75;2.10;;;14.60;99.90;;;;;;5093774;28;20032;-79
2023/05/10 05:22:08;;;;;;;4.68;2.20;;;14.60;99.90;;;;;;5093463;28;20024;-79
2023/05/10 05:24:37;;;;;;;5.82;2.00;;;14.60;99.90;;;;;;5094285;28;20036;-79
2023/05/10 05:27:03;;;;;;;7.30;2.15;;;14.60;99.90;;;;;;5093387;28;20060;-79
2023/05/10 05:29:29;;;;;;;4.47;2.20;;;14.60;99.90;;;;;;5094628;28;20063;-79
2023/05/10 05:31:55;;;;;;;4.10;2.60;;;14.60;99.90;;;;;;5095131;28;20460;-78
2023/05/10 05:34:21;;;;;;;2.08;1.80;;;14.60;99.90;;;;;;5094382;28;20032;-79
2023/05/10 05:36:47;;;;;;;3.10;2.17;;;14.70;99.90;;;;;;5092454;28;20062;-78
2023/05/10 05:39:13;;;;;;;2.85;1.90;;;14.70;99.90;;;;;;5093399;28;20075;-77
2023/05/10 05:41:38;;;;;;;2.50;1.88;;;14.70;99.90;;;;;;5094216;28;20099;-78
2023/05/10 05:44:04;;;;;;;2.25;1.67;;;14.70;99.90;;;;;;5092115;28;20119;-81
2023/05/10 05:46:29;;;;;;;1.85;1.45;;;14.70;99.90;;;;;;5093206;28;20024;-78
2023/05/10 05:48:55;;;;;;;3.65;1.73;;;14.70;99.90;;;;;;5094101;28;20031;-78
2023/05/10 05:51:21;;;;;;;2.78;1.50;;;14.70;99.90;;;;;;5093828;28;20460;-78
2023/05/10 05:53:46;;;;;;;4.03;1.38;;;14.70;99.90;;;;;;5089360;28;20028;-78
2023/05/10 05:56:12;;;;;;;3.05;1.70;;;14.70;99.90;;;;;;5091576;28;20024;-81
2023/05/10 05:58:37;;;;;;;1.63;1.27;;;14.70;99.90;;;;;;5092534;28;20052;-79
2023/05/10 06:01:03;;;;;;;1.90;1.40;;;14.80;99.90;;;;;;5092490;28;20495;-79
2023/05/10 06:03:29;;;;;;;2.30;1.20;;;14.80;99.90;;;;;;5093021;28;20096;-78
2023/05/10 06:05:54;;;;;;;1.45;1.13;;;14.80;99.90;;;;;;5093237;28;20028;-78
2023/05/10 06:08:20;;;;;;;1.88;1.38;;;14.80;99.90;;;;;;5092200;28;20024;-79
2023/05/10 06:10:46;;;;;;;2.88;1.20;;;14.70;99.90;;;;;;5092301;28;20534;-78
2023/05/10 06:13:11;;;;;;;1.08;0.98;;;14.80;99.90;;;;;;5093036;28;20024;-78
2023/05/10 06:15:37;;;;;;;1.10;0.93;;;14.80;99.90;;;;;;5086031;28;20107;-78
2023/05/10 06:18:03;;;;;;;1.08;0.88;;;14.80;99.90;;;;;;5092634;28;20052;-78
2023/05/10 06:20:28;;;;;;;1.10;1.00;;;14.70;99.90;;;;;;5093587;28;20060;-78
2023/05/10 06:22:54;;;;;;;1.08;0.90;;;14.80;99.90;;;;;;5093016;28;20475;-80
2023/05/10 06:25:20;;;;;;;1.23;0.90;;;14.80;99.90;;;;;;5094598;28;20036;-79
2023/05/10 06:27:45;;;;;;;2.28;1.63;;;14.80;99.90;;;;;;5092030;28;20039;-78
2023/05/10 06:30:13;;;;;;;1.60;1.10;;;14.80;99.90;;;;;;5091797;28;20035;-78
2023/05/10 06:32:38;;;;;;;4.45;0.90;;;14.80;99.90;;;;;;5092267;28;20032;-80
2023/05/10 06:35:04;;;;;;;1.88;0.90;;;14.80;99.90;;;;;;5091612;28;20049;-78
2023/05/10 06:37:30;;;;;;;1.17;0.90;;;14.80;99.90;;;;;;5092159;28;20028;-79
2023/05/10 06:39:55;;;;;;;4.18;0.98;;;14.80;99.90;;;;;;5092994;28;20053;-78
2023/05/10 06:42:21;;;;;;;1.92;0.80;;;14.80;99.90;;;;;;5091249;28;20032;-78
2023/05/10 06:44:46;;;;;;;2.70;0.80;;;14.90;99.90;;;;;;5092163;28;20028;-78
2023/05/10 06:47:12;;;;;;;1.42;0.57;;;14.90;99.90;;;;;;5091750;28;20123;-79
2023/05/10 06:49:38;;;;;;;0.50;0.50;;;15.00;99.90;;;;;;5091665;28;20040;-80
2023/05/10 06:52:03;;;;;;;2.55;0.65;;;15.00;99.90;;;;;;5092456;28;20318;-78
2023/05/10 06:54:29;;;;;;;0.77;0.50;;;15.10;99.90;;;;;;5097403;28;20032;-80
2023/05/10 06:56:55;;;;;;;2.08;0.80;;;15.10;99.90;;;;;;5091749;28;20025;-79
2023/05/10 06:59:21;;;;;;;1.05;0.80;;;15.10;99.90;;;;;;5090975;28;20024;-77
2023/05/10 07:01:47;;;;;;;1.02;0.75;;;15.20;99.90;;;;;;5087949;28;20048;-79
2023/05/10 07:04:13;;;;;;;1.63;0.68;;;15.20;99.90;;;;;;5091178;28;20062;-79
2023/05/10 07:06:38;;;;;;;1.77;0.70;;;15.30;99.90;;;;;;5091357;28;20031;-77
2023/05/10 07:09:04;;;;;;;4.13;0.80;;;15.40;99.90;;;;;;5089586;28;20334;-77
2023/05/10 07:11:30;;;;;;;0.85;0.73;;;15.30;99.90;;;;;;5086949;28;20058;-76
2023/05/10 07:13:55;;;;;;;2.83;1.10;;;15.30;99.90;;;;;;5088666;28;20031;-77
2023/05/10 07:16:21;;;;;;;5.55;3.30;;;15.30;99.90;;;;;;5088428;28;20028;-77
2023/05/10 07:18:47;;;;;;;1.13;1.02;;;15.30;99.90;;;;;;5090369;28;20477;-77
2023/05/10 07:21:12;;;;;;;1.40;0.90;;;15.20;99.90;;;;;;5090622;28;20511;-78
2023/05/10 07:23:38;;;;;;;5.97;1.90;;;15.30;99.90;;;;;;5093796;28;20020;-79
2023/05/10 07:26:03;;;;;;;10.65;4.43;;;15.30;99.90;;;;;;5090688;28;20081;-76
2023/05/10 07:28:29;;;;;;;14.23;5.20;;;15.20;99.90;;;;;;5118008;28;20020;-83
2023/05/10 07:30:55;;;;;;;5.13;2.03;;;15.30;99.90;;;;;;5093199;28;20056;-80
2023/05/10 07:33:20;;;;;;;2.05;1.20;;;15.30;99.90;;;;;;5091505;28;20475;-78
2023/05/10 07:35:46;;;;;;;5.25;0.90;;;15.30;99.90;;;;;;5090329;28;20096;-81
2023/05/10 07:38:12;;;;;;;3.53;0.82;;;15.40;99.90;;;;;;5090088;28;20024;-78
2023/05/10 07:40:39;;;;;;;1.60;0.73;;;15.40;99.90;;;;;;5092088;28;20409;-78
2023/05/10 07:43:04;;;;;;;0.75;0.60;;;15.50;99.90;;;;;;5090251;28;20050;-78
2023/05/10 07:45:30;;;;;;;1.88;1.10;;;15.50;99.90;;;;;;5091841;28;20426;-77
2023/05/10 07:47:55;;;;;;;1.00;0.70;;;15.50;99.90;;;;;;5091614;28;20028;-75
2023/05/10 07:50:21;;;;;;;1.38;0.80;;;15.60;99.90;;;;;;5089956;28;20295;-76
2023/05/10 07:52:47;;;;;;;1.95;1.40;;;15.60;99.90;;;;;;5091175;28;20107;-77
2023/05/10 07:55:13;;;;;;;1.60;0.90;;;15.50;99.90;;;;;;5099284;28;20547;-76
2023/05/10 07:57:39;;;;;;;0.77;0.70;;;15.50;99.90;;;;;;5091731;28;20100;-77
2023/05/10 08:00:06;;;;;;;2.10;0.65;;;15.50;99.90;;;;;;5090048;28;20052;-77
2023/05/10 08:02:33;;;;;;;0.80;0.50;;;15.60;99.90;;;;;;5092401;28;20116;-76
2023/05/10 08:04:59;;;;;;;2.35;0.68;;;15.60;99.90;;;;;;5091941;28;20050;-76
2023/05/10 08:07:24;;;;;;;0.50;0.50;;;15.70;99.90;;;;;;5092342;28;20099;-76
2023/05/10 08:09:50;;;;;;;1.20;0.60;;;15.80;99.90;;;;;;5095900;28;20043;-75
2023/05/10 08:12:16;;;;;;;1.02;0.60;;;15.90;99.90;;;;;;5094422;28;20390;-76
2023/05/10 08:14:41;;;;;;;1.00;0.68;;;16.00;99.90;;;;;;5096289;28;20031;-76
2023/05/10 08:17:07;;;;;;;1.25;0.60;;;16.10;99.90;;;;;;5093743;28;20028;-76
2023/05/10 08:19:32;;;;;;;0.65;0.50;;;16.00;99.90;;;;;;5093644;28;20420;-77
2023/05/10 08:21:58;;;;;;;1.90;0.40;;;16.00;99.90;;;;;;5094394;28;20128;-76
2023/05/10 08:24:24;;;;;;;2.22;0.60;;;16.10;99.90;;;;;;5094493;28;20123;-76
2023/05/10 08:26:49;;;;;;;1.17;0.80;;;16.10;99.90;;;;;;5095367;28;20032;-77
2023/05/10 08:29:15;;;;;;;0.52;0.40;;;16.00;99.90;;;;;;5095020;28;20024;-76
2023/05/10 08:31:41;;;;;;;0.70;0.60;;;15.90;99.90;;;;;;5093829;28;20464;-76
2023/05/10 08:34:06;;;;;;;0.80;0.52;;;15.80;99.90;;;;;;5093713;28;20044;-76
2023/05/10 08:36:32;;;;;;;1.63;0.60;;;15.70;99.90;;;;;;5093747;28;20028;-76
2023/05/10 08:38:58;;;;;;;1.38;0.60;;;15.80;99.90;;;;;;5093435;28;20135;-77
2023/05/10 08:41:25;;;;;;;1.95;0.60;;;15.90;99.90;;;;;;5093285;28;20032;-76
2023/05/10 08:43:52;;;;;;;1.80;0.68;;;16.00;99.90;;;;;;5095048;28;20032;-76
2023/05/10 08:46:19;;;;;;;0.68;0.50;;;16.00;99.90;;;;;;5093229;28;20062;-76
2023/05/10 08:48:46;;;;;;;0.95;0.55;;;16.20;99.90;;;;;;5093945;28;20035;-76
2023/05/10 08:51:14;;;;;;;0.90;0.50;;;16.10;99.90;;;;;;5092820;28;20035;-76
2023/05/10 08:53:40;;;;;;;0.50;0.50;;;16.00;99.90;;;;;;5097907;28;20035;-75
2023/05/10 08:56:06;;;;;;;0.40;0.40;;;16.00;99.90;;;;;;5093342;28;20039;-76
2023/05/10 08:58:32;;;;;;;1.90;0.50;;;16.00;99.90;;;;;;5094585;28;20407;-76
2023/05/10 09:00:59;;;;;;;1.02;0.60;;;16.00;99.90;;;;;;5093543;28;20441;-76
2023/05/10 09:03:24;;;;;;;3.35;0.73;;;16.00;99.90;;;;;;5093302;28;20028;-75
2023/05/10 09:05:50;;;;;;;1.35;0.40;;;16.10;99.90;;;;;;5094934;28;20079;-76
2023/05/10 09:08:17;;;;;;;1.15;0.40;;;16.20;99.90;;;;;;5093115;28;20055;-76
2023/05/10 09:10:48;;;;;;;2.72;0.55;;;16.40;99.90;;;;;;5093467;28;20383;-76
2023/05/10 09:13:15;;;;;;;0.32;0.30;;;16.50;99.90;;;;;;5093017;28;20036;-76
2023/05/10 09:15:41;;;;;;;0.77;0.30;;;16.60;99.90;;;;;;5076667;28;20119;-75
2023/05/10 09:18:06;;;;;;;0.70;0.38;;;16.50;99.90;;;;;;5092296;28;20221;-76
2023/05/10 09:20:32;;;;;;;1.20;0.30;;;16.50;99.90;;;;;;5091814;28;20036;-76
2023/05/10 09:22:58;;;;;;;0.28;0.28;;;16.50;99.90;;;;;;5093346;28;20461;-76
2023/05/10 09:25:23;;;;;;;0.30;0.30;;;16.40;99.90;;;;;;5092793;28;20491;-75
2023/05/10 09:27:49;;;;;;;3.85;0.40;;;16.30;99.90;;;;;;5094726;28;20052;-76
2023/05/10 09:30:17;;;;;;;0.73;0.32;;;16.20;99.90;;;;;;5092663;28;20020;-76
2023/05/10 09:32:46;;;;;;;0.20;0.20;;;16.20;99.90;;;;;;5093975;28;20051;-78
2023/05/10 09:35:13;;;;;;;0.43;0.20;;;16.00;99.90;;;;;;5092942;28;20020;-76
2023/05/10 09:37:41;;;;;;;0.30;0.20;;;16.10;99.90;;;;;;5092513;28;20035;-76
2023/05/10 09:40:08;;;;;;;1.13;0.60;;;16.10;99.90;;;;;;5092026;28;20569;-77
2023/05/10 09:42:34;;;;;;;0.75;0.40;;;16.20;99.90;;;;;;5092724;28;20032;-76
2023/05/10 09:45:07;;;;;;;1.00;0.40;;;16.20;99.90;;;;;;5092847;28;20078;-76
2023/05/10 09:47:36;;;;;;;1.02;0.30;;;16.30;99.90;;;;;;5093060;28;20062;-76
2023/05/10 09:50:03;;;;;;;1.17;0.30;;;16.50;99.90;;;;;;5092848;28;20071;-76
2023/05/10 09:52:31;;;;;;;1.83;0.38;;;16.60;99.90;;;;;;5092082;28;20419;-76
2023/05/10 09:54:57;;;;;;;2.80;0.70;;;16.60;99.90;;;;;;5103539;28;20127;-77
2023/05/10 09:57:23;;;;;;;0.55;0.30;;;16.70;99.90;;;;;;5091879;28;20077;-76
2023/05/10 09:59:50;;;;;;;0.47;0.30;;;16.70;99.90;;;;;;5092047;28;20024;-75
2023/05/10 10:02:16;;;;;;;2.15;0.40;;;16.90;99.90;;;;;;5093240;28;20022;-76
2023/05/10 10:04:42;;;;;;;1.65;0.30;;;16.90;99.90;;;;;;5093852;28;20055;-75
2023/05/10 10:07:07;;;;;;;0.60;0.40;;;17.00;99.90;;;;;;5092449;28;20366;-77
2023/05/10 10:09:34;;;;;;;0.98;0.30;;;17.10;99.90;;;;;;5092853;28;20024;-75
2023/05/10 10:12:01;;;;;;;1.63;0.40;;;17.20;99.90;;;;;;5093019;28;20032;-76
2023/05/10 10:14:28;;;;;;;0.88;0.50;;;17.10;99.90;;;;;;5092519;28;20088;-76
2023/05/10 10:16:54;;;;;;;3.20;0.22;;;17.10;99.90;;;;;;5094026;28;20035;-75
2023/05/10 10:19:20;;;;;;;1.90;0.50;;;17.00;99.90;;;;;;5093598;28;20464;-76
2023/05/10 10:21:47;;;;;;;1.88;0.47;;;16.80;99.90;;;;;;5092652;28;20024;-75
2023/05/10 10:24:12;;;;;;;0.60;0.40;;;16.70;99.90;;;;;;5092505;28;20091;-75
2023/05/10 10:26:40;;;;;;;1.63;0.30;;;16.70;99.90;;;;;;5093800;28;20457;-76
2023/05/10 10:29:24;;;;;;;1.83;0.43;;;16.70;99.90;;;;;;5093874;28;20051;-75
2023/05/10 10:32:14;;;;;;;1.55;0.50;;;16.90;99.90;;;;;;5093718;28;20024;-75
2023/05/10 10:34:40;;;;;;;1.13;0.60;;;17.10;99.90;;;;;;5092505;28;20317;-75
2023/05/10 10:37:06;;;;;;;1.58;0.82;;;17.30;99.90;;;;;;5092357;28;20115;-75
2023/05/10 10:39:32;;;;;;;1.55;0.50;;;17.20;99.90;;;;;;5091612;28;20040;-75
2023/05/10 10:41:59;;;;;;;1.35;0.70;;;17.20;99.90;;;;;;5092316;28;20408;-75
2023/05/10 10:44:33;;;;;;;1.25;0.77;;;17.20;99.90;;;;;;5093297;28;20039;-75
2023/05/10 10:47:22;;;;;;;3.17;1.20;;;17.30;99.90;;;;;;5092375;28;20056;-75
2023/05/10 10:49:51;;;;;;;1.25;0.90;;;17.30;99.90;;;;;;5092070;28;20062;-76
2023/05/10 10:52:30;;;;;;;2.70;1.10;;;17.40;99.90;;;;;;5091800;28;20027;-75
2023/05/10 10:55:02;;;;;;;4.30;1.30;;;17.50;99.90;;;;;;5092007;28;20056;-75
2023/05/10 10:57:30;;;;;;;;;;;17.50;99.90;;;;;;5091902;28;20059;-76
2023/05/10 11:00:20;;;;;;;4.40;1.15;;;17.60;99.90;;;;;;5092289;28;20007;-75
2023/05/10 11:03:13;;;;;;;1.65;0.93;;;17.60;99.90;;;;;;5091949;28;20028;-75
2023/05/10 11:05:49;;;;;;;2.70;0.82;;;17.60;99.90;;;;;;5092281;28;20066;-76
2023/05/10 11:08:28;;;;;;;3.03;1.13;;;17.60;99.90;;;;;;5091700;28;20028;-76
2023/05/10 11:10:59;;;;;;;5.10;0.90;;;17.50;99.90;;;;;;5092024;28;20036;-76
2023/05/10 11:13:31;;;;;;;;;;;17.60;99.90;;;;;;5093540;28;20036;-75
2023/05/10 11:15:58;;;;;;;3.05;0.77;;;17.60;99.90;;;;;;5092063;28;19927;-75
2023/05/10 11:18:25;;;;;;;3.30;0.88;;;17.70;99.90;;;;;;5091217;28;20487;-75
2023/05/10 11:20:59;;;;;;;3.80;0.70;;;17.70;99.90;;;;;;5091665;28;20472;-75
2023/05/10 11:23:32;;;;;;;1.30;0.80;;;17.60;99.90;;;;;;5092491;28;20028;-75
2023/05/10 11:26:00;;;;;;;2.80;0.68;;;17.60;99.90;;;;;;5091576;28;20119;-76
2023/05/10 11:28:27;;;;;;;1.95;0.50;;;17.70;99.90;;;;;;5091220;28;20518;-76
2023/05/10 11:30:53;;;;;;;1.20;0.50;;;17.60;99.90;;;;;;5091846;28;20025;-75
2023/05/10 11:33:19;;;;;;;2.20;0.60;;;17.60;99.90;;;;;;5091425;28;20028;-76
2023/05/10 11:35:45;;;;;;;0.73;0.38;;;17.60;99.90;;;;;;5091955;28;20024;-78
2023/05/10 11:38:13;;;;;;;2.03;0.70;;;17.60;99.90;;;;;;5093003;28;20035;-78
2023/05/10 11:40:40;;;;;;;3.60;0.50;;;17.50;99.90;;;;;;5093028;28;20059;-75
2023/05/10 11:43:06;;;;;;;0.55;0.55;;;17.50;99.90;;;;;;5093223;28;20034;-76
2023/05/10 11:45:32;;;;;;;2.25;0.70;;;17.70;99.90;;;;;;5096437;28;20028;-75
2023/05/10 11:47:59;;;;;;;2.58;0.60;;;17.70;99.90;;;;;;5096894;28;20022;-75
2023/05/10 11:50:25;;;;;;;3.83;0.90;;;17.80;99.90;;;;;;5096477;28;20465;-76
2023/05/10 11:52:55;;;;;;;2.08;0.47;;;17.70;99.90;;;;;;5096816;28;20457;-77
2023/05/10 11:55:21;;;;;;;2.20;0.30;;;17.70;99.90;;;;;;5094844;28;20024;-76
2023/05/10 11:57:47;;;;;;;1.13;0.30;;;17.70;99.90;;;;;;5095456;28;20024;-75
2023/05/10 12:00:14;;;;;;;2.42;0.43;;;17.80;99.90;;;;;;5096758;28;20028;-80
2023/05/10 12:02:40;;;;;;;0.30;0.30;;;17.70;99.90;;;;;;5095310;28;20024;-77
2023/05/10 12:05:07;;;;;;;1.10;0.40;;;17.70;99.90;;;;;;5095708;28;20032;-77
2023/05/10 12:07:32;;;;;;;0.90;0.40;;;17.70;99.90;;;;;;5096429;28;20024;-76
2023/05/10 12:10:08;;;;;;;0.30;0.30;;;17.70;99.90;;;;;;5095348;28;20078;-76
2023/05/10 12:12:44;;;;;;;0.88;0.30;;;17.70;99.90;;;;;;5094333;28;20070;-76
2023/05/10 12:15:19;;;;;;;0.75;0.40;;;17.70;99.90;;;;;;5094987;28;20020;-77
2023/05/10 12:17:46;;;;;;;0.80;0.40;;;17.70;99.90;;;;;;5096523;28;20028;-76
2023/05/10 12:20:16;;;;;;;1.75;0.38;;;17.80;99.90;;;;;;5096242;28;20389;-76
2023/05/10 12:22:49;;;;;;;0.40;0.40;;;17.90;99.90;;;;;;5096079;28;20028;-77
2023/05/10 12:25:15;;;;;;;1.40;0.60;;;17.90;99.90;;;;;;5094746;28;20028;-81
2023/05/10 12:27:46;;;;;;;2.03;0.70;;;18.10;99.50;;;;;;5095999;28;20133;-76
2023/05/10 12:30:12;;;;;;;10.30;0.80;;;18.20;99.70;;;;;;5094958;28;20384;-76
2023/05/10 12:32:40;;;;;;;2.30;0.68;;;18.20;99.30;;;;;;5094265;28;20462;-76
2023/05/10 12:35:07;;;;;;;1.70;0.45;;;18.10;99.20;;;;;;5095997;28;20024;-77
2023/05/10 12:37:35;;;;;;;1.23;0.60;;;18.20;98.90;;;;;;5094102;28;20112;-77
2023/05/10 12:40:02;;;;;;;1.70;0.50;;;18.20;98.80;;;;;;5094327;28;20075;-76
2023/05/10 12:42:29;;;;;;;1.30;0.60;;;18.40;99.10;;;;;;5095188;28;20024;-76
2023/05/10 12:44:56;;;;;;;1.50;0.80;;;18.50;98.60;;;;;;5094523;28;20365;-77
2023/05/10 12:47:22;;;;;;;1.00;0.50;;;18.60;98.90;;;;;;5093647;28;20028;-77
2023/05/10 12:49:47;;;;;;;0.98;0.55;;;18.60;97.50;;;;;;5095486;28;20159;-76
2023/05/10 12:52:13;;;;;;;1.75;0.68;;;18.70;97.70;;;;;;5094544;28;20389;-77
2023/05/10 12:54:38;;;;;;;1.40;0.50;;;18.80;98.00;;;;;;5092426;28;20031;-77